sensor_id;sensor_type;location;lat;lon;timestamp;P1;durP1;ratioP1;P2;durP2;ratioP2
70052;SDS011;57398;52.032;4.376;2023-02-05T00:00:08;17.23;;;6.40;;
70052;SDS011;57398;52.032;4.376;2023-02-05T00:02:58;17.13;;;6.27;;
70052;SDS011;57398;52.032;4.376;2023-02-05T00:05:47;16.15;;;6.35;;
70052;SDS011;57398;52.032;4.376;2023-02-05T00:08:35;17.92;;;5.57;;
70052;SDS011;57398;52.032;4.376;2023-02-05T00:11:24;15.50;;;5.32;;
70052;SDS011;57398;52.032;4.376;2023-02-05T00:14:12;18.70;;;5.53;;
70052;SDS011;57398;52.032;4.376;2023-02-05T00:17:00;13.67;;;5.53;;
70052;SDS011;57398;52.032;4.376;2023-02-05T00:19:50;13.98;;;5.20;;
70052;SDS011;57398;52.032;4.376;2023-02-05T00:22:38;13.20;;;5.22;;
70052;SDS011;57398;52.032;4.376;2023-02-05T00:25:27;11.95;;;4.35;;
70052;SDS011;57398;52.032;4.376;2023-02-05T00:28:15;11.57;;;4.82;;
70052;SDS011;57398;52.032;4.376;2023-02-05T00:31:06;11.57;;;4.10;;
70052;SDS011;57398;52.032;4.376;2023-02-05T00:33:55;10.65;;;3.42;;
70052;SDS011;57398;52.032;4.376;2023-02-05T00:36:44;8.82;;;2.80;;
70052;SDS011;57398;52.032;4.376;2023-02-05T00:39:33;8.45;;;3.08;;
70052;SDS011;57398;52.032;4.376;2023-02-05T00:42:21;9.70;;;3.20;;
70052;SDS011;57398;52.032;4.376;2023-02-05T00:45:09;6.27;;;2.30;;
70052;SDS011;57398;52.032;4.376;2023-02-05T00:47:58;7.53;;;2.65;;
70052;SDS011;57398;52.032;4.376;2023-02-05T00:50:46;5.85;;;2.30;;
70052;SDS011;57398;52.032;4.376;2023-02-05T00:53:37;6.78;;;2.50;;
70052;SDS011;57398;52.032;4.376;2023-02-05T00:56:26;7.93;;;2.40;;
70052;SDS011;57398;52.032;4.376;2023-02-05T00:59:14;5.37;;;2.10;;
70052;SDS011;57398;52.032;4.376;2023-02-05T01:02:03;5.75;;;2.20;;
70052;SDS011;57398;52.032;4.376;2023-02-05T01:04:51;4.93;;;1.95;;
70052;SDS011;57398;52.032;4.376;2023-02-05T01:07:40;5.45;;;1.85;;
70052;SDS011;57398;52.032;4.376;2023-02-05T01:10:30;5.47;;;1.83;;
70052;SDS011;57398;52.032;4.376;2023-02-05T01:13:19;6.67;;;1.53;;
70052;SDS011;57398;52.032;4.376;2023-02-05T01:16:07;4.55;;;1.52;;
70052;SDS011;57398;52.032;4.376;2023-02-05T01:18:56;4.43;;;1.50;;
70052;SDS011;57398;52.032;4.376;2023-02-05T01:21:45;5.75;;;1.58;;
70052;SDS011;57398;52.032;4.376;2023-02-05T01:24:37;10.65;;;1.60;;
70052;SDS011;57398;52.032;4.376;2023-02-05T01:27:26;3.60;;;1.23;;
70052;SDS011;57398;52.032;4.376;2023-02-05T01:30:15;4.68;;;1.10;;
70052;SDS011;57398;52.032;4.376;2023-02-05T01:33:03;4.03;;;1.33;;
70052;SDS011;57398;52.032;4.376;2023-02-05T01:35:51;4.18;;;1.20;;
70052;SDS011;57398;52.032;4.376;2023-02-05T01:38:40;5.90;;;1.25;;
70052;SDS011;57398;52.032;4.376;2023-02-05T01:41:28;5.47;;;1.30;;
70052;SDS011;57398;52.032;4.376;2023-02-05T01:44:19;4.38;;;1.10;;
70052;SDS011;57398;52.032;4.376;2023-02-05T01:47:10;4.10;;;1.08;;
70052;SDS011;57398;52.032;4.376;2023-02-05T01:49:59;5.38;;;0.93;;
70052;SDS011;57398;52.032;4.376;2023-02-05T01:52:47;7.07;;;1.40;;
70052;SDS011;57398;52.032;4.376;2023-02-05T01:55:35;7.37;;;1.60;;
70052;SDS011;57398;52.032;4.376;2023-02-05T01:58:29;4.00;;;1.73;;
70052;SDS011;57398;52.032;4.376;2023-02-05T02:01:21;6.45;;;1.70;;
70052;SDS011;57398;52.032;4.376;2023-02-05T02:04:11;6.40;;;1.58;;
70052;SDS011;57398;52.032;4.376;2023-02-05T02:07:02;6.38;;;1.70;;
70052;SDS011;57398;52.032;4.376;2023-02-05T02:09:53;5.30;;;1.60;;
70052;SDS011;57398;52.032;4.376;2023-02-05T02:12:42;4.53;;;1.58;;
70052;SDS011;57398;52.032;4.376;2023-02-05T02:15:32;5.07;;;1.45;;
70052;SDS011;57398;52.032;4.376;2023-02-05T02:18:22;6.90;;;1.45;;
70052;SDS011;57398;52.032;4.376;2023-02-05T02:21:18;4.38;;;1.50;;
70052;SDS011;57398;52.032;4.376;2023-02-05T02:24:42;5.23;;;1.43;;
70052;SDS011;57398;52.032;4.376;2023-02-05T02:27:49;8.00;;;1.70;;
70052;SDS011;57398;52.032;4.376;2023-02-05T02:30:42;5.18;;;1.63;;
70052;SDS011;57398;52.032;4.376;2023-02-05T02:33:35;5.68;;;1.88;;
70052;SDS011;57398;52.032;4.376;2023-02-05T02:36:29;8.50;;;2.00;;
70052;SDS011;57398;52.032;4.376;2023-02-05T02:39:24;8.87;;;2.00;;
70052;SDS011;57398;52.032;4.376;2023-02-05T02:42:18;8.35;;;2.17;;
70052;SDS011;57398;52.032;4.376;2023-02-05T02:45:11;7.03;;;2.13;;
70052;SDS011;57398;52.032;4.376;2023-02-05T02:48:00;5.68;;;2.20;;
70052;SDS011;57398;52.032;4.376;2023-02-05T02:50:51;6.53;;;1.80;;
70052;SDS011;57398;52.032;4.376;2023-02-05T02:53:44;8.90;;;2.60;;
70052;SDS011;57398;52.032;4.376;2023-02-05T02:56:36;9.02;;;2.65;;
70052;SDS011;57398;52.032;4.376;2023-02-05T02:59:29;10.13;;;3.00;;
70052;SDS011;57398;52.032;4.376;2023-02-05T03:02:57;10.27;;;2.88;;
70052;SDS011;57398;52.032;4.376;2023-02-05T03:05:49;7.97;;;2.72;;
70052;SDS011;57398;52.032;4.376;2023-02-05T03:08:42;11.27;;;2.77;;
70052;SDS011;57398;52.032;4.376;2023-02-05T03:11:37;10.63;;;3.03;;
70052;SDS011;57398;52.032;4.376;2023-02-05T03:14:26;9.40;;;2.75;;
70052;SDS011;57398;52.032;4.376;2023-02-05T03:17:15;8.15;;;2.45;;
70052;SDS011;57398;52.032;4.376;2023-02-05T03:20:08;8.80;;;3.13;;
70052;SDS011;57398;52.032;4.376;2023-02-05T03:23:00;7.70;;;2.77;;
70052;SDS011;57398;52.032;4.376;2023-02-05T03:25:48;12.25;;;3.58;;
70052;SDS011;57398;52.032;4.376;2023-02-05T03:28:36;14.20;;;3.47;;
70052;SDS011;57398;52.032;4.376;2023-02-05T03:31:27;9.98;;;3.88;;
70052;SDS011;57398;52.032;4.376;2023-02-05T03:34:35;13.68;;;3.70;;
70052;SDS011;57398;52.032;4.376;2023-02-05T03:37:37;7.43;;;3.47;;
70052;SDS011;57398;52.032;4.376;2023-02-05T03:40:37;12.45;;;4.05;;
70052;SDS011;57398;52.032;4.376;2023-02-05T03:43:31;9.63;;;3.58;;
70052;SDS011;57398;52.032;4.376;2023-02-05T03:46:25;10.18;;;4.00;;
70052;SDS011;57398;52.032;4.376;2023-02-05T03:49:20;10.57;;;4.03;;
70052;SDS011;57398;52.032;4.376;2023-02-05T03:52:17;11.97;;;4.23;;
70052;SDS011;57398;52.032;4.376;2023-02-05T03:55:12;10.20;;;4.28;;
70052;SDS011;57398;52.032;4.376;2023-02-05T03:58:03;11.77;;;4.32;;
70052;SDS011;57398;52.032;4.376;2023-02-05T04:00:57;11.43;;;4.38;;
70052;SDS011;57398;52.032;4.376;2023-02-05T04:03:45;11.02;;;4.53;;
70052;SDS011;57398;52.032;4.376;2023-02-05T04:06:34;11.87;;;4.37;;
70052;SDS011;57398;52.032;4.376;2023-02-05T04:09:22;11.13;;;4.75;;
70052;SDS011;57398;52.032;4.376;2023-02-05T04:12:12;12.75;;;5.13;;
70052;SDS011;57398;52.032;4.376;2023-02-05T04:15:01;8.80;;;3.55;;
70052;SDS011;57398;52.032;4.376;2023-02-05T04:17:49;11.65;;;3.92;;
70052;SDS011;57398;52.032;4.376;2023-02-05T04:20:37;9.70;;;3.30;;
70052;SDS011;57398;52.032;4.376;2023-02-05T04:23:25;6.25;;;2.10;;
70052;SDS011;57398;52.032;4.376;2023-02-05T04:26:13;7.57;;;2.22;;
70052;SDS011;57398;52.032;4.376;2023-02-05T04:29:03;6.38;;;1.35;;
70052;SDS011;57398;52.032;4.376;2023-02-05T04:31:52;4.53;;;1.60;;
70052;SDS011;57398;52.032;4.376;2023-02-05T04:34:40;6.07;;;1.80;;
70052;SDS011;57398;52.032;4.376;2023-02-05T04:37:28;7.60;;;1.48;;
70052;SDS011;57398;52.032;4.376;2023-02-05T04:40:16;4.53;;;1.08;;
70052;SDS011;57398;52.032;4.376;2023-02-05T04:43:05;9.68;;;1.20;;
70052;SDS011;57398;52.032;4.376;2023-02-05T04:45:54;4.63;;;1.20;;
70052;SDS011;57398;52.032;4.376;2023-02-05T04:48:42;4.97;;;1.33;;
70052;SDS011;57398;52.032;4.376;2023-02-05T04:51:31;7.78;;;1.27;;
70052;SDS011;57398;52.032;4.376;2023-02-05T04:54:19;5.05;;;0.90;;
70052;SDS011;57398;52.032;4.376;2023-02-05T04:57:08;6.22;;;0.95;;
70052;SDS011;57398;52.032;4.376;2023-02-05T04:59:56;6.00;;;0.98;;
70052;SDS011;57398;52.032;4.376;2023-02-05T05:02:46;7.40;;;1.50;;
70052;SDS011;57398;52.032;4.376;2023-02-05T05:05:34;6.93;;;0.90;;
70052;SDS011;57398;52.032;4.376;2023-02-05T05:08:23;8.50;;;1.17;;
70052;SDS011;57398;52.032;4.376;2023-02-05T05:11:12;6.97;;;1.05;;
70052;SDS011;57398;52.032;4.376;2023-02-05T05:14:02;8.05;;;1.40;;
70052;SDS011;57398;52.032;4.376;2023-02-05T05:16:50;6.67;;;1.20;;
70052;SDS011;57398;52.032;4.376;2023-02-05T05:19:42;4.85;;;1.58;;
70052;SDS011;57398;52.032;4.376;2023-02-05T05:22:30;3.83;;;0.98;;
70052;SDS011;57398;52.032;4.376;2023-02-05T05:25:18;3.95;;;1.08;;
70052;SDS011;57398;52.032;4.376;2023-02-05T05:28:06;6.28;;;1.08;;
70052;SDS011;57398;52.032;4.376;2023-02-05T05:30:54;5.60;;;1.03;;
70052;SDS011;57398;52.032;4.376;2023-02-05T05:33:43;5.95;;;0.95;;
70052;SDS011;57398;52.032;4.376;2023-02-05T05:36:33;5.50;;;1.17;;
70052;SDS011;57398;52.032;4.376;2023-02-05T05:39:22;8.38;;;1.00;;
70052;SDS011;57398;52.032;4.376;2023-02-05T05:42:27;10.30;;;1.13;;
70052;SDS011;57398;52.032;4.376;2023-02-05T05:45:33;5.80;;;1.00;;
70052;SDS011;57398;52.032;4.376;2023-02-05T05:48:22;6.90;;;0.90;;
70052;SDS011;57398;52.032;4.376;2023-02-05T05:51:10;6.53;;;1.30;;
70052;SDS011;57398;52.032;4.376;2023-02-05T05:54:00;8.07;;;1.40;;
70052;SDS011;57398;52.032;4.376;2023-02-05T05:56:48;9.63;;;1.15;;
70052;SDS011;57398;52.032;4.376;2023-02-05T05:59:37;6.07;;;0.67;;
70052;SDS011;57398;52.032;4.376;2023-02-05T06:02:25;7.90;;;0.80;;
70052;SDS011;57398;52.032;4.376;2023-02-05T06:05:14;4.60;;;1.00;;
70052;SDS011;57398;52.032;4.376;2023-02-05T06:08:02;8.55;;;0.80;;
70052;SDS011;57398;52.032;4.376;2023-02-05T06:10:53;5.97;;;0.80;;
70052;SDS011;57398;52.032;4.376;2023-02-05T06:13:41;2.23;;;0.80;;
70052;SDS011;57398;52.032;4.376;2023-02-05T06:16:30;5.35;;;1.33;;
70052;SDS011;57398;52.032;4.376;2023-02-05T06:19:18;4.95;;;1.15;;
70052;SDS011;57398;52.032;4.376;2023-02-05T06:22:07;5.57;;;1.00;;
70052;SDS011;57398;52.032;4.376;2023-02-05T06:24:55;6.93;;;1.25;;
70052;SDS011;57398;52.032;4.376;2023-02-05T06:27:47;7.20;;;1.13;;
70052;SDS011;57398;52.032;4.376;2023-02-05T06:30:35;5.75;;;1.48;;
70052;SDS011;57398;52.032;4.376;2023-02-05T06:33:24;9.07;;;1.58;;
70052;SDS011;57398;52.032;4.376;2023-02-05T06:36:12;6.43;;;0.73;;
70052;SDS011;57398;52.032;4.376;2023-02-05T06:39:00;7.75;;;1.65;;
70052;SDS011;57398;52.032;4.376;2023-02-05T06:41:48;7.47;;;0.80;;
70052;SDS011;57398;52.032;4.376;2023-02-05T06:44:38;5.93;;;0.77;;
70052;SDS011;57398;52.032;4.376;2023-02-05T06:47:27;5.90;;;1.10;;
70052;SDS011;57398;52.032;4.376;2023-02-05T06:50:15;8.95;;;1.98;;
70052;SDS011;57398;52.032;4.376;2023-02-05T06:53:03;9.05;;;1.10;;
70052;SDS011;57398;52.032;4.376;2023-02-05T06:55:51;5.97;;;1.33;;
70052;SDS011;57398;52.032;4.376;2023-02-05T06:58:40;6.90;;;1.27;;
70052;SDS011;57398;52.032;4.376;2023-02-05T07:01:29;4.70;;;1.10;;
70052;SDS011;57398;52.032;4.376;2023-02-05T07:04:17;10.95;;;1.65;;
70052;SDS011;57398;52.032;4.376;2023-02-05T07:07:06;7.03;;;1.05;;
70052;SDS011;57398;52.032;4.376;2023-02-05T07:09:54;6.77;;;1.00;;
70052;SDS011;57398;52.032;4.376;2023-02-05T07:12:42;5.43;;;1.17;;
70052;SDS011;57398;52.032;4.376;2023-02-05T07:15:31;6.78;;;1.30;;
70052;SDS011;57398;52.032;4.376;2023-02-05T07:18:21;8.50;;;1.40;;
70052;SDS011;57398;52.032;4.376;2023-02-05T07:21:11;4.00;;;1.00;;
70052;SDS011;57398;52.032;4.376;2023-02-05T07:24:03;10.87;;;1.33;;
70052;SDS011;57398;52.032;4.376;2023-02-05T07:26:52;9.02;;;2.38;;
70052;SDS011;57398;52.032;4.376;2023-02-05T07:29:40;6.47;;;1.92;;
70052;SDS011;57398;52.032;4.376;2023-02-05T07:32:28;6.50;;;1.27;;
70052;SDS011;57398;52.032;4.376;2023-02-05T07:35:18;9.25;;;1.33;;
70052;SDS011;57398;52.032;4.376;2023-02-05T07:38:07;5.60;;;1.10;;
70052;SDS011;57398;52.032;4.376;2023-02-05T07:40:57;8.20;;;1.30;;
70052;SDS011;57398;52.032;4.376;2023-02-05T07:43:48;7.38;;;1.63;;
70052;SDS011;57398;52.032;4.376;2023-02-05T07:46:37;9.38;;;1.73;;
70052;SDS011;57398;52.032;4.376;2023-02-05T07:49:26;13.30;;;1.63;;
70052;SDS011;57398;52.032;4.376;2023-02-05T07:52:16;8.50;;;1.40;;
70052;SDS011;57398;52.032;4.376;2023-02-05T07:55:06;6.53;;;1.30;;
70052;SDS011;57398;52.032;4.376;2023-02-05T07:57:54;9.18;;;1.55;;
70052;SDS011;57398;52.032;4.376;2023-02-05T08:00:43;9.13;;;2.22;;
70052;SDS011;57398;52.032;4.376;2023-02-05T08:03:32;15.60;;;2.50;;
70052;SDS011;57398;52.032;4.376;2023-02-05T08:06:21;12.83;;;1.67;;
70052;SDS011;57398;52.032;4.376;2023-02-05T08:09:11;11.18;;;2.05;;
70052;SDS011;57398;52.032;4.376;2023-02-05T08:12:00;10.73;;;1.95;;
70052;SDS011;57398;52.032;4.376;2023-02-05T08:14:48;9.45;;;1.95;;
70052;SDS011;57398;52.032;4.376;2023-02-05T08:17:38;22.92;;;2.30;;
70052;SDS011;57398;52.032;4.376;2023-02-05T08:20:27;13.20;;;1.63;;
70052;SDS011;57398;52.032;4.376;2023-02-05T08:23:15;12.27;;;2.13;;
70052;SDS011;57398;52.032;4.376;2023-02-05T08:26:05;9.43;;;1.83;;
70052;SDS011;57398;52.032;4.376;2023-02-05T08:28:53;11.57;;;2.72;;
70052;SDS011;57398;52.032;4.376;2023-02-05T08:31:41;9.85;;;1.50;;
70052;SDS011;57398;52.032;4.376;2023-02-05T08:34:31;13.57;;;1.90;;
70052;SDS011;57398;52.032;4.376;2023-02-05T08:37:20;11.40;;;2.67;;
70052;SDS011;57398;52.032;4.376;2023-02-05T08:40:12;9.00;;;2.55;;
70052;SDS011;57398;52.032;4.376;2023-02-05T08:43:02;14.32;;;1.80;;
70052;SDS011;57398;52.032;4.376;2023-02-05T08:45:50;9.13;;;1.63;;
70052;SDS011;57398;52.032;4.376;2023-02-05T08:48:39;14.10;;;2.30;;
70052;SDS011;57398;52.032;4.376;2023-02-05T08:51:27;16.67;;;2.63;;
70052;SDS011;57398;52.032;4.376;2023-02-05T08:54:16;10.50;;;1.50;;
70052;SDS011;57398;52.032;4.376;2023-02-05T08:57:04;9.52;;;1.50;;
70052;SDS011;57398;52.032;4.376;2023-02-05T08:59:54;11.57;;;2.08;;
70052;SDS011;57398;52.032;4.376;2023-02-05T09:02:43;13.10;;;1.83;;
70052;SDS011;57398;52.032;4.376;2023-02-05T09:05:35;9.23;;;2.33;;
70052;SDS011;57398;52.032;4.376;2023-02-05T09:08:25;10.65;;;1.88;;
70052;SDS011;57398;52.032;4.376;2023-02-05T09:11:18;12.35;;;2.05;;
70052;SDS011;57398;52.032;4.376;2023-02-05T09:14:07;11.70;;;2.25;;
70052;SDS011;57398;52.032;4.376;2023-02-05T09:16:59;13.63;;;2.03;;
70052;SDS011;57398;52.032;4.376;2023-02-05T09:19:47;14.68;;;2.22;;
70052;SDS011;57398;52.032;4.376;2023-02-05T09:22:38;9.32;;;1.83;;
70052;SDS011;57398;52.032;4.376;2023-02-05T09:25:26;15.98;;;2.25;;
70052;SDS011;57398;52.032;4.376;2023-02-05T09:28:15;11.07;;;2.13;;
70052;SDS011;57398;52.032;4.376;2023-02-05T09:31:04;7.70;;;1.60;;
70052;SDS011;57398;52.032;4.376;2023-02-05T09:33:55;9.13;;;1.67;;
70052;SDS011;57398;52.032;4.376;2023-02-05T09:36:46;14.65;;;2.00;;
70052;SDS011;57398;52.032;4.376;2023-02-05T09:39:35;9.32;;;1.75;;
70052;SDS011;57398;52.032;4.376;2023-02-05T09:42:46;14.73;;;1.70;;
70052;SDS011;57398;52.032;4.376;2023-02-05T09:45:47;9.03;;;1.37;;
70052;SDS011;57398;52.032;4.376;2023-02-05T09:48:44;11.90;;;2.00;;
70052;SDS011;57398;52.032;4.376;2023-02-05T09:51:40;10.18;;;1.67;;
70052;SDS011;57398;52.032;4.376;2023-02-05T09:54:32;11.25;;;1.85;;
70052;SDS011;57398;52.032;4.376;2023-02-05T09:57:29;12.23;;;1.90;;
70052;SDS011;57398;52.032;4.376;2023-02-05T10:00:24;12.07;;;2.13;;
70052;SDS011;57398;52.032;4.376;2023-02-05T10:03:18;9.95;;;1.48;;
70052;SDS011;57398;52.032;4.376;2023-02-05T10:06:15;13.40;;;2.42;;
70052;SDS011;57398;52.032;4.376;2023-02-05T10:12:32;14.80;;;2.28;;
70052;SDS011;57398;52.032;4.376;2023-02-05T10:15:44;9.13;;;1.60;;
70052;SDS011;57398;52.032;4.376;2023-02-05T10:18:42;6.70;;;1.55;;
70052;SDS011;57398;52.032;4.376;2023-02-05T10:21:39;14.30;;;2.28;;
70052;SDS011;57398;52.032;4.376;2023-02-05T10:24:52;11.75;;;1.90;;
70052;SDS011;57398;52.032;4.376;2023-02-05T10:27:52;11.65;;;1.88;;
70052;SDS011;57398;52.032;4.376;2023-02-05T10:30:52;11.30;;;1.57;;
70052;SDS011;57398;52.032;4.376;2023-02-05T10:33:45;8.40;;;1.90;;
70052;SDS011;57398;52.032;4.376;2023-02-05T10:36:36;15.63;;;1.90;;
70052;SDS011;57398;52.032;4.376;2023-02-05T10:39:25;16.17;;;2.50;;
70052;SDS011;57398;52.032;4.376;2023-02-05T10:42:23;7.68;;;2.00;;
70052;SDS011;57398;52.032;4.376;2023-02-05T10:45:16;11.53;;;3.30;;
70052;SDS011;57398;52.032;4.376;2023-02-05T10:48:18;11.18;;;2.17;;
70052;SDS011;57398;52.032;4.376;2023-02-05T10:51:09;8.55;;;1.83;;
70052;SDS011;57398;52.032;4.376;2023-02-05T10:53:59;13.85;;;1.90;;
70052;SDS011;57398;52.032;4.376;2023-02-05T10:56:47;13.13;;;1.88;;
70052;SDS011;57398;52.032;4.376;2023-02-05T10:59:40;15.20;;;2.87;;
70052;SDS011;57398;52.032;4.376;2023-02-05T11:02:32;9.10;;;1.95;;
70052;SDS011;57398;52.032;4.376;2023-02-05T11:05:21;12.27;;;2.67;;
70052;SDS011;57398;52.032;4.376;2023-02-05T11:11:21;10.77;;;2.65;;
70052;SDS011;57398;52.032;4.376;2023-02-05T11:14:12;6.27;;;1.43;;
70052;SDS011;57398;52.032;4.376;2023-02-05T11:17:19;14.07;;;2.17;;
70052;SDS011;57398;52.032;4.376;2023-02-05T11:20:20;11.38;;;2.22;;
70052;SDS011;57398;52.032;4.376;2023-02-05T11:23:16;9.27;;;1.60;;
70052;SDS011;57398;52.032;4.376;2023-02-05T11:26:07;8.38;;;2.17;;
70052;SDS011;57398;52.032;4.376;2023-02-05T11:28:57;12.73;;;2.43;;
70052;SDS011;57398;52.032;4.376;2023-02-05T11:31:46;11.95;;;1.38;;
70052;SDS011;57398;52.032;4.376;2023-02-05T11:34:36;15.75;;;2.05;;
70052;SDS011;57398;52.032;4.376;2023-02-05T11:37:24;14.60;;;1.67;;
70052;SDS011;57398;52.032;4.376;2023-02-05T11:40:19;12.50;;;2.88;;
70052;SDS011;57398;52.032;4.376;2023-02-05T11:43:14;12.20;;;2.00;;
70052;SDS011;57398;52.032;4.376;2023-02-05T11:46:05;13.80;;;2.22;;
70052;SDS011;57398;52.032;4.376;2023-02-05T11:48:56;17.17;;;2.03;;
70052;SDS011;57398;52.032;4.376;2023-02-05T11:51:48;13.73;;;2.30;;
70052;SDS011;57398;52.032;4.376;2023-02-05T11:54:42;12.85;;;2.30;;
70052;SDS011;57398;52.032;4.376;2023-02-05T11:57:32;7.80;;;1.60;;
70052;SDS011;57398;52.032;4.376;2023-02-05T12:00:24;6.75;;;1.77;;
70052;SDS011;57398;52.032;4.376;2023-02-05T12:03:15;10.98;;;1.65;;
70052;SDS011;57398;52.032;4.376;2023-02-05T12:06:10;15.02;;;1.55;;
70052;SDS011;57398;52.032;4.376;2023-02-05T12:09:04;15.27;;;2.08;;
70052;SDS011;57398;52.032;4.376;2023-02-05T12:11:56;12.97;;;2.30;;
70052;SDS011;57398;52.032;4.376;2023-02-05T12:15:03;12.30;;;2.55;;
70052;SDS011;57398;52.032;4.376;2023-02-05T12:18:04;14.90;;;1.70;;
70052;SDS011;57398;52.032;4.376;2023-02-05T12:21:03;10.02;;;2.13;;
70052;SDS011;57398;52.032;4.376;2023-02-05T12:24:09;12.80;;;1.98;;
70052;SDS011;57398;52.032;4.376;2023-02-05T12:27:12;10.37;;;1.93;;
70052;SDS011;57398;52.032;4.376;2023-02-05T12:30:18;10.60;;;1.83;;
70052;SDS011;57398;52.032;4.376;2023-02-05T12:33:13;11.35;;;1.50;;
70052;SDS011;57398;52.032;4.376;2023-02-05T12:36:19;10.30;;;2.38;;
70052;SDS011;57398;52.032;4.376;2023-02-05T12:39:20;7.80;;;1.80;;
70052;SDS011;57398;52.032;4.376;2023-02-05T12:42:23;14.50;;;2.43;;
70052;SDS011;57398;52.032;4.376;2023-02-05T12:45:17;9.07;;;2.22;;
70052;SDS011;57398;52.032;4.376;2023-02-05T12:48:11;7.97;;;1.58;;
70052;SDS011;57398;52.032;4.376;2023-02-05T12:51:12;6.10;;;1.63;;
70052;SDS011;57398;52.032;4.376;2023-02-05T12:54:21;17.40;;;2.72;;
70052;SDS011;57398;52.032;4.376;2023-02-05T12:57:27;10.20;;;1.47;;
70052;SDS011;57398;52.032;4.376;2023-02-05T13:00:24;13.43;;;1.80;;
70052;SDS011;57398;52.032;4.376;2023-02-05T13:03:20;11.05;;;1.83;;
70052;SDS011;57398;52.032;4.376;2023-02-05T13:06:14;15.25;;;1.95;;
70052;SDS011;57398;52.032;4.376;2023-02-05T13:09:07;16.35;;;1.80;;
70052;SDS011;57398;52.032;4.376;2023-02-05T13:12:07;10.23;;;1.50;;
70052;SDS011;57398;52.032;4.376;2023-02-05T13:15:01;14.13;;;2.13;;
70052;SDS011;57398;52.032;4.376;2023-02-05T13:17:56;10.52;;;1.67;;
70052;SDS011;57398;52.032;4.376;2023-02-05T13:20:48;13.82;;;1.92;;
70052;SDS011;57398;52.032;4.376;2023-02-05T13:23:59;8.13;;;1.83;;
70052;SDS011;57398;52.032;4.376;2023-02-05T13:27:20;7.33;;;1.40;;
70052;SDS011;57398;52.032;4.376;2023-02-05T13:30:29;10.43;;;2.00;;
70052;SDS011;57398;52.032;4.376;2023-02-05T13:33:29;12.45;;;1.67;;
70052;SDS011;57398;52.032;4.376;2023-02-05T13:39:51;15.82;;;2.33;;
70052;SDS011;57398;52.032;4.376;2023-02-05T13:46:19;11.73;;;2.25;;
70052;SDS011;57398;52.032;4.376;2023-02-05T13:56:10;15.13;;;1.98;;
70052;SDS011;57398;52.032;4.376;2023-02-05T13:59:13;10.77;;;1.30;;
70052;SDS011;57398;52.032;4.376;2023-02-05T14:02:20;11.82;;;2.20;;
70052;SDS011;57398;52.032;4.376;2023-02-05T14:05:16;10.48;;;2.10;;
70052;SDS011;57398;52.032;4.376;2023-02-05T14:08:18;9.80;;;1.90;;
70052;SDS011;57398;52.032;4.376;2023-02-05T14:11:08;5.88;;;1.35;;
70052;SDS011;57398;52.032;4.376;2023-02-05T14:20:42;9.35;;;1.63;;
70052;SDS011;57398;52.032;4.376;2023-02-05T14:26:42;12.13;;;1.67;;
70052;SDS011;57398;52.032;4.376;2023-02-05T14:29:37;7.43;;;1.93;;
70052;SDS011;57398;52.032;4.376;2023-02-05T14:35:45;9.20;;;1.25;;
70052;SDS011;57398;52.032;4.376;2023-02-05T14:38:35;11.82;;;1.85;;
70052;SDS011;57398;52.032;4.376;2023-02-05T14:41:26;7.68;;;1.30;;
70052;SDS011;57398;52.032;4.376;2023-02-05T14:44:24;13.87;;;2.17;;
70052;SDS011;57398;52.032;4.376;2023-02-05T14:47:18;6.38;;;1.42;;
70052;SDS011;57398;52.032;4.376;2023-02-05T14:50:18;13.15;;;2.03;;
70052;SDS011;57398;52.032;4.376;2023-02-05T14:53:15;11.52;;;3.17;;
70052;SDS011;57398;52.032;4.376;2023-02-05T14:56:20;12.05;;;1.90;;
70052;SDS011;57398;52.032;4.376;2023-02-05T14:59:17;11.07;;;1.83;;
70052;SDS011;57398;52.032;4.376;2023-02-05T15:05:33;9.85;;;2.10;;
70052;SDS011;57398;52.032;4.376;2023-02-05T15:08:35;10.63;;;2.25;;
70052;SDS011;57398;52.032;4.376;2023-02-05T15:11:25;11.43;;;2.15;;
70052;SDS011;57398;52.032;4.376;2023-02-05T15:14:23;10.63;;;1.83;;
70052;SDS011;57398;52.032;4.376;2023-02-05T15:20:37;19.42;;;2.35;;
70052;SDS011;57398;52.032;4.376;2023-02-05T15:23:29;17.67;;;2.40;;
70052;SDS011;57398;52.032;4.376;2023-02-05T15:26:22;15.05;;;2.33;;
70052;SDS011;57398;52.032;4.376;2023-02-05T15:29:16;16.83;;;2.87;;
70052;SDS011;57398;52.032;4.376;2023-02-05T15:32:12;6.95;;;1.80;;
70052;SDS011;57398;52.032;4.376;2023-02-05T15:35:05;13.82;;;2.40;;
70052;SDS011;57398;52.032;4.376;2023-02-05T15:38:18;13.30;;;2.17;;
70052;SDS011;57398;52.032;4.376;2023-02-05T15:41:15;11.55;;;1.75;;
70052;SDS011;57398;52.032;4.376;2023-02-05T15:44:03;16.13;;;1.50;;
70052;SDS011;57398;52.032;4.376;2023-02-05T15:46:52;11.38;;;1.60;;
70052;SDS011;57398;52.032;4.376;2023-02-05T15:49:42;9.75;;;1.60;;
70052;SDS011;57398;52.032;4.376;2023-02-05T15:52:32;11.40;;;2.08;;
70052;SDS011;57398;52.032;4.376;2023-02-05T15:55:23;14.43;;;2.15;;
70052;SDS011;57398;52.032;4.376;2023-02-05T15:58:14;9.77;;;1.63;;
70052;SDS011;57398;52.032;4.376;2023-02-05T16:01:07;17.35;;;2.22;;
70052;SDS011;57398;52.032;4.376;2023-02-05T16:03:55;12.55;;;2.00;;
70052;SDS011;57398;52.032;4.376;2023-02-05T16:06:44;15.52;;;2.20;;
70052;SDS011;57398;52.032;4.376;2023-02-05T16:09:33;12.63;;;1.60;;
70052;SDS011;57398;52.032;4.376;2023-02-05T16:12:28;8.93;;;1.97;;
70052;SDS011;57398;52.032;4.376;2023-02-05T16:15:17;14.63;;;2.08;;
70052;SDS011;57398;52.032;4.376;2023-02-05T16:18:06;14.70;;;1.73;;
70052;SDS011;57398;52.032;4.376;2023-02-05T16:21:01;14.20;;;2.47;;
70052;SDS011;57398;52.032;4.376;2023-02-05T16:23:54;11.98;;;2.70;;
70052;SDS011;57398;52.032;4.376;2023-02-05T16:26:47;15.30;;;1.60;;
70052;SDS011;57398;52.032;4.376;2023-02-05T16:29:43;10.75;;;1.95;;
70052;SDS011;57398;52.032;4.376;2023-02-05T16:32:36;11.90;;;1.90;;
70052;SDS011;57398;52.032;4.376;2023-02-05T16:35:28;8.30;;;1.80;;
70052;SDS011;57398;52.032;4.376;2023-02-05T16:38:20;13.48;;;2.08;;
70052;SDS011;57398;52.032;4.376;2023-02-05T16:41:16;8.67;;;1.70;;
70052;SDS011;57398;52.032;4.376;2023-02-05T16:44:08;12.25;;;1.85;;
70052;SDS011;57398;52.032;4.376;2023-02-05T16:47:15;12.85;;;1.80;;
70052;SDS011;57398;52.032;4.376;2023-02-05T16:53:24;12.15;;;2.28;;
70052;SDS011;57398;52.032;4.376;2023-02-05T16:56:23;16.77;;;2.30;;
70052;SDS011;57398;52.032;4.376;2023-02-05T16:59:20;13.70;;;2.25;;
70052;SDS011;57398;52.032;4.376;2023-02-05T17:02:19;17.88;;;2.40;;
70052;SDS011;57398;52.032;4.376;2023-02-05T17:05:20;6.85;;;1.55;;
70052;SDS011;57398;52.032;4.376;2023-02-05T17:08:10;11.23;;;1.70;;
70052;SDS011;57398;52.032;4.376;2023-02-05T17:11:01;17.43;;;1.73;;
70052;SDS011;57398;52.032;4.376;2023-02-05T17:13:49;11.77;;;1.90;;
70052;SDS011;57398;52.032;4.376;2023-02-05T17:16:38;14.43;;;2.90;;
70052;SDS011;57398;52.032;4.376;2023-02-05T17:23:25;10.45;;;1.85;;
70052;SDS011;57398;52.032;4.376;2023-02-05T17:26:45;12.77;;;1.87;;
70052;SDS011;57398;52.032;4.376;2023-02-05T17:29:34;9.40;;;1.92;;
70052;SDS011;57398;52.032;4.376;2023-02-05T17:36:23;19.23;;;2.20;;
70052;SDS011;57398;52.032;4.376;2023-02-05T17:39:33;14.15;;;2.30;;
70052;SDS011;57398;52.032;4.376;2023-02-05T17:42:23;19.37;;;2.37;;
70052;SDS011;57398;52.032;4.376;2023-02-05T17:45:20;13.32;;;2.00;;
70052;SDS011;57398;52.032;4.376;2023-02-05T17:48:20;14.52;;;2.20;;
70052;SDS011;57398;52.032;4.376;2023-02-05T17:51:26;16.83;;;2.50;;
70052;SDS011;57398;52.032;4.376;2023-02-05T17:58:04;17.30;;;3.17;;
70052;SDS011;57398;52.032;4.376;2023-02-05T18:01:15;18.92;;;2.72;;
70052;SDS011;57398;52.032;4.376;2023-02-05T18:04:07;19.23;;;3.08;;
70052;SDS011;57398;52.032;4.376;2023-02-05T18:13:47;15.80;;;2.47;;